Time,TemperatureF,DewpointF,PressureIn,WindDirection,WindDirectionDegrees,WindSpeedMPH,WindSpeedGustMPH,Humidity,HourlyPrecipIn,Conditions,Clouds,dailyrainin,SoftwareType,DateUTC
2013-01-10 00:02:00,47.9,24.8,30.07,WSW,238,11.0,19.0,40,0.00,,---,0.00,VWS V13.01,2013-01-10 08:02:00,
2013-01-10 00:32:00,48.6,25.4,30.03,WSW,240,10.0,21.0,40,0.00,,---,0.00,VWS V13.01,2013-01-10 08:32:00,
2013-01-10 01:02:00,48.5,25.9,30.02,WSW,248,9.0,22.0,41,0.00,,---,0.00,VWS V13.01,2013-01-10 09:02:00,
2013-01-10 01:32:00,47.3,26.0,30.03,WSW,251,6.0,19.0,43,0.00,,---,0.00,VWS V13.01,2013-01-10 09:32:00,
2013-01-10 02:02:00,40.1,31.8,30.06,West,262,3.0,18.0,72,0.00,,---,0.00,VWS V13.01,2013-01-10 10:02:00,
2013-01-10 02:32:00,37.6,35.5,30.07,West,281,9.0,14.0,92,0.00,,---,0.00,VWS V13.01,2013-01-10 10:32:00,
2013-01-10 03:02:00,37.5,36.5,30.06,West,263,14.0,18.0,96,0.00,,---,0.00,VWS V13.01,2013-01-10 11:02:00,
2013-01-10 03:32:00,37.3,36.5,30.06,WNW,282,9.0,19.0,97,0.00,,---,0.00,VWS V13.01,2013-01-10 11:32:00,
2013-01-10 04:02:00,37.3,36.5,30.04,WSW,239,12.0,24.0,97,0.00,,---,0.00,VWS V13.01,2013-01-10 12:02:00,
2013-01-10 04:32:00,37.6,37.1,30.06,SW,226,8.0,22.0,98,0.00,,---,0.00,VWS V13.01,2013-01-10 12:32:00,
2013-01-10 05:02:00,37.9,37.4,30.06,SW,222,12.0,24.0,98,0.00,,---,0.00,VWS V13.01,2013-01-10 13:02:00,
2013-01-10 05:32:00,37.6,37.1,30.07,SW,226,12.0,26.0,98,0.00,,---,0.00,VWS V13.01,2013-01-10 13:32:00,
2013-01-10 06:02:00,37.8,37.5,30.07,NW,326,12.0,25.0,99,0.01,,---,0.01,VWS V13.01,2013-01-10 14:02:00,
2013-01-10 06:32:00,37.5,37.2,30.07,SW,226,9.0,20.0,99,0.02,,---,0.02,VWS V13.01,2013-01-10 14:32:00,
2013-01-10 07:02:00,37.6,37.3,30.06,WSW,240,11.0,21.0,99,0.02,,---,0.02,VWS V13.01,2013-01-10 15:02:00,
2013-01-10 07:32:00,37.8,37.5,30.07,SSE,163,4.0,20.0,99,0.03,,---,0.04,VWS V13.01,2013-01-10 15:32:00,
2013-01-10 08:02:00,38.3,38.0,30.07,SSW,198,14.0,22.0,99,0.05,,---,0.07,VWS V13.01,2013-01-10 16:02:00,
2013-01-10 08:32:00,38.6,38.3,30.06,WSW,241,12.0,23.0,99,0.07,,---,0.09,VWS V13.01,2013-01-10 16:32:00,
2013-01-10 09:02:00,38.3,38.0,30.06,WSW,245,11.0,29.0,99,0.07,,---,0.11,VWS V13.01,2013-01-10 17:02:00,
2013-01-10 09:32:00,36.3,36.0,30.07,West,272,12.0,27.0,99,0.07,,---,0.14,VWS V13.01,2013-01-10 17:32:00,
2013-01-10 10:02:00,35.2,35.0,30.08,SW,223,6.0,30.0,99,0.05,,---,0.14,VWS V13.01,2013-01-10 18:02:00,
2013-01-10 10:32:00,34.9,34.7,30.07,SSW,206,16.0,25.0,99,0.05,,---,0.16,VWS V13.01,2013-01-10 18:32:00,
2013-01-10 11:02:00,33.4,33.2,30.06,WNW,283,16.0,26.0,99,0.02,,---,0.16,VWS V13.01,2013-01-10 19:02:00,
2013-01-10 11:32:00,32.2,32.0,30.04,SSW,206,11.0,29.0,99,0.02,,---,0.16,VWS V13.01,2013-01-10 19:32:00,
2013-01-10 12:02:00,31.8,31.5,30.03,SSW,208,9.0,34.0,99,0.00,,---,0.16,VWS V13.01,2013-01-10 20:02:00,
2013-01-10 12:32:00,31.3,31.0,30.01,SSW,212,19.0,31.0,99,0.00,,---,0.16,VWS V13.01,2013-01-10 20:32:00,
2013-01-10 13:02:00,31.8,30.8,30.01,West,262,16.0,28.0,96,0.00,,---,0.16,VWS V13.01,2013-01-10 21:02:00,
2013-01-10 13:32:00,31.8,30.0,30.05,West,269,12.0,27.0,93,0.00,,---,0.16,VWS V13.01,2013-01-10 21:32:00,
2013-01-10 14:02:00,32.2,29.6,30.05,WSW,240,13.0,28.0,90,0.00,,---,0.16,VWS V13.01,2013-01-10 22:02:00,
2013-01-10 14:32:00,32.9,29.5,30.07,WSW,245,17.0,32.0,87,0.00,,---,0.16,VWS V13.01,2013-01-10 22:32:00,
2013-01-10 15:02:00,32.8,28.5,30.08,SSW,199,6.0,33.0,84,0.00,,---,0.16,VWS V13.01,2013-01-10 23:02:00,
2013-01-10 15:32:00,32.4,29.0,30.09,ESE,106,4.0,23.0,87,0.00,,---,0.16,VWS V13.01,2013-01-10 23:32:00,
2013-01-10 16:02:00,31.8,28.4,30.09,SSW,196,15.0,31.0,87,0.00,,---,0.16,VWS V13.01,2013-01-11 00:02:00,
2013-01-10 16:32:00,31.5,28.6,30.07,West,275,11.0,25.0,89,0.00,,---,0.16,VWS V13.01,2013-01-11 00:32:00,
2013-01-10 17:02:00,30.7,28.9,30.09,SW,226,4.0,18.0,93,0.00,,---,0.16,VWS V13.01,2013-01-11 01:02:00,
2013-01-10 17:32:00,30.3,29.3,30.10,SE,134,9.0,23.0,96,0.00,,---,0.16,VWS V13.01,2013-01-11 01:32:00,
2013-01-10 18:02:00,29.8,28.8,30.11,ESE,103,2.0,18.0,96,0.00,,---,0.16,VWS V13.01,2013-01-11 02:02:00,
2013-01-10 18:32:00,30.0,29.0,30.10,NE,44,14.0,22.0,96,0.00,,---,0.16,VWS V13.01,2013-01-11 02:32:00,
2013-01-10 19:02:00,30.0,29.2,30.11,South,172,11.0,16.0,97,0.00,,---,0.16,VWS V13.01,2013-01-11 03:02:00,
2013-01-10 19:32:00,30.3,29.5,30.11,SSW,202,11.0,22.0,97,0.00,,---,0.16,VWS V13.01,2013-01-11 03:32:00,
2013-01-10 20:02:00,30.3,29.5,30.13,NE,42,11.0,17.0,97,0.00,,---,0.16,VWS V13.01,2013-01-11 04:02:00,
2013-01-10 20:32:00,30.4,29.6,30.13,SSE,153,9.0,17.0,97,0.00,,---,0.16,VWS V13.01,2013-01-11 04:32:00,
2013-01-10 21:03:00,30.1,29.4,30.13,NNE,27,7.0,23.0,97,0.00,,---,0.16,VWS V13.01,2013-01-11 05:03:00,
2013-01-10 21:32:00,30.1,29.4,30.18,ENE,60,2.0,19.0,97,0.00,,---,0.16,VWS V13.01,2013-01-11 05:32:00,
2013-01-10 22:02:00,29.5,28.8,30.20,South,178,1.0,21.0,97,0.00,,---,0.16,VWS V13.01,2013-01-11 06:02:00,
2013-01-10 22:32:00,28.2,27.2,30.25,SE,139,3.0,16.0,96,0.00,,---,0.16,VWS V13.01,2013-01-11 06:32:00,
2013-01-10 23:02:00,26.4,23.6,30.26,SW,233,6.0,17.0,89,0.00,,---,0.16,VWS V13.01,2013-01-11 07:02:00,
2013-01-10 23:32:00,26.1,21.1,30.26,SSW,195,3.0,15.0,81,0.00,,---,0.16,VWS V13.01,2013-01-11 07:32:00,